Time,TemperatureF,DewpointF,PressureIn,WindDirection,WindDirectionDegrees,WindSpeedMPH,WindSpeedGustMPH,Humidity,HourlyPrecipIn,Conditions,Clouds,dailyrainin,SoftwareType,DateUTC
2013-02-10 00:00:00,34.0,-99.9,-100.00,SE,145,9.0,13.0,-999,0.04,,,0.04,,2013-02-10 06:00:00,
2013-02-10 00:42:00,34.0,-99.9,-100.00,SE,145,9.0,13.0,-999,0.04,,,0.04,,2013-02-10 06:42:00,
2013-02-10 00:52:00,34.0,-99.9,-100.00,SE,145,9.0,13.0,-999,0.04,,,0.04,,2013-02-10 06:52:00,
2013-02-10 01:00:00,34.0,-99.9,-100.00,SE,139,11.0,23.0,-999,0.03,,,0.07,,2013-02-10 07:00:00,
2013-02-10 01:42:00,34.0,-99.9,-100.00,SE,139,11.0,23.0,-999,0.03,,,0.07,,2013-02-10 07:42:00,
2013-02-10 01:52:00,34.0,-99.9,-100.00,SE,139,11.0,23.0,-999,0.03,,,0.07,,2013-02-10 07:52:00,
2013-02-10 02:00:00,34.0,-99.9,-100.00,SE,139,11.0,19.0,-999,0.01,,,0.08,,2013-02-10 08:00:00,
2013-02-10 02:43:00,34.0,-99.9,-100.00,SE,139,11.0,19.0,-999,0.01,,,0.08,,2013-02-10 08:43:00,
2013-02-10 02:52:00,34.0,-99.9,-100.00,SE,139,11.0,19.0,-999,0.01,,,0.08,,2013-02-10 08:52:00,
2013-02-10 03:00:00,34.0,-99.9,-100.00,SE,140,8.0,12.0,-999,0.00,,,0.08,,2013-02-10 09:00:00,
2013-02-10 03:42:00,34.0,-99.9,-100.00,SE,140,8.0,12.0,-999,0.00,,,0.08,,2013-02-10 09:42:00,
2013-02-10 03:52:00,34.0,-99.9,-100.00,SE,140,8.0,12.0,-999,0.00,,,0.08,,2013-02-10 09:52:00,
2013-02-10 04:00:00,34.0,-99.9,-100.00,SE,136,10.0,16.0,-999,0.00,,,0.08,,2013-02-10 10:00:00,
2013-02-10 04:42:00,34.0,-99.9,-100.00,SE,136,10.0,16.0,-999,0.00,,,0.08,,2013-02-10 10:42:00,
2013-02-10 04:52:00,34.0,-99.9,-100.00,SE,136,10.0,16.0,-999,0.00,,,0.08,,2013-02-10 10:52:00,
2013-02-10 05:00:00,34.0,-99.9,-100.00,SE,135,12.0,24.0,-999,0.00,,,0.08,,2013-02-10 11:00:00,
2013-02-10 05:42:00,34.0,-99.9,-100.00,SE,135,12.0,24.0,-999,0.00,,,0.08,,2013-02-10 11:42:00,
2013-02-10 05:52:00,34.0,-99.9,-100.00,SE,135,12.0,24.0,-999,0.00,,,0.08,,2013-02-10 11:52:00,
2013-02-10 06:00:00,35.0,-99.9,-100.00,SSE,154,15.0,21.0,-999,0.00,,,0.08,,2013-02-10 12:00:00,
2013-02-10 06:42:00,35.0,-99.9,-100.00,SSE,154,15.0,21.0,-999,0.00,,,0.08,,2013-02-10 12:42:00,
2013-02-10 06:52:00,35.0,-99.9,-100.00,SSE,154,15.0,21.0,-999,0.00,,,0.08,,2013-02-10 12:52:00,
2013-02-10 07:00:00,36.0,-99.9,-100.00,SSE,156,16.0,22.0,-999,0.02,,,0.10,,2013-02-10 13:00:00,
2013-02-10 07:42:00,36.0,-99.9,-100.00,SSE,156,16.0,22.0,-999,0.02,,,0.10,,2013-02-10 13:42:00,
2013-02-10 07:52:00,36.0,-99.9,-100.00,SSE,156,16.0,22.0,-999,0.02,,,0.10,,2013-02-10 13:52:00,
2013-02-10 09:00:00,38.0,-99.9,-100.00,SSE,153,15.0,23.0,-999,0.00,,,0.15,,2013-02-10 15:00:00,
2013-02-10 09:52:00,38.0,-99.9,-100.00,SSE,153,15.0,23.0,-999,0.00,,,0.15,,2013-02-10 15:52:00,
2013-02-10 10:00:00,40.0,-99.9,-100.00,SSE,160,14.0,22.0,-999,0.00,,,0.15,,2013-02-10 16:00:00,
2013-02-10 10:42:00,40.0,-99.9,-100.00,SSE,160,14.0,22.0,-999,0.00,,,0.15,,2013-02-10 16:42:00,
2013-02-10 10:52:00,40.0,-99.9,-100.00,SSE,160,14.0,22.0,-999,0.00,,,0.15,,2013-02-10 16:52:00,
2013-02-10 11:00:00,42.0,-99.9,-100.00,SSE,162,15.0,24.0,-999,0.00,,,0.15,,2013-02-10 17:00:00,
2013-02-10 11:42:00,42.0,-99.9,-100.00,SSE,162,15.0,24.0,-999,0.00,,,0.15,,2013-02-10 17:42:00,
2013-02-10 11:53:00,42.0,-99.9,-100.00,SSE,162,15.0,24.0,-999,0.00,,,0.15,,2013-02-10 17:53:00,
2013-02-10 12:00:00,46.0,-99.9,-100.00,SSE,162,13.0,18.0,-999,0.00,,,0.15,,2013-02-10 18:00:00,
2013-02-10 12:42:00,46.0,-99.9,-100.00,SSE,162,13.0,18.0,-999,0.00,,,0.15,,2013-02-10 18:42:00,
2013-02-10 12:52:00,46.0,-99.9,-100.00,SSE,162,13.0,18.0,-999,0.00,,,0.15,,2013-02-10 18:52:00,
2013-02-10 13:00:00,50.0,-99.9,-100.00,South,170,12.0,20.0,-999,0.00,,,0.15,,2013-02-10 19:00:00,
2013-02-10 13:43:00,50.0,-99.9,-100.00,South,170,12.0,20.0,-999,0.00,,,0.15,,2013-02-10 19:43:00,
2013-02-10 13:52:00,50.0,-99.9,-100.00,South,170,12.0,20.0,-999,0.00,,,0.15,,2013-02-10 19:52:00,
2013-02-10 14:00:00,53.0,-99.9,-100.00,SSW,210,15.0,30.0,-999,0.00,,,0.15,,2013-02-10 20:00:00,
2013-02-10 14:42:00,53.0,-99.9,-100.00,SSW,210,15.0,30.0,-999,0.00,,,0.15,,2013-02-10 20:42:00,
2013-02-10 14:53:00,53.0,-99.9,-100.00,SSW,210,15.0,30.0,-999,0.00,,,0.15,,2013-02-10 20:53:00,
2013-02-10 15:00:00,52.0,-99.9,-100.00,WSW,239,14.0,25.0,-999,0.01,,,0.16,,2013-02-10 21:00:00,
2013-02-10 15:32:00,52.0,-99.9,-100.00,WSW,239,14.0,25.0,-999,0.01,,,0.16,,2013-02-10 21:32:00,
2013-02-10 15:43:00,52.0,-99.9,-100.00,WSW,239,14.0,25.0,-999,0.01,,,0.16,,2013-02-10 21:43:00,
2013-02-10 15:52:00,52.0,-99.9,-100.00,WSW,239,14.0,25.0,-999,0.01,,,0.16,,2013-02-10 21:52:00,
2013-02-10 16:00:00,48.0,-99.9,-100.00,WSW,237,10.0,24.0,-999,0.00,,,0.16,,2013-02-10 22:00:00,
2013-02-10 16:42:00,48.0,-99.9,-100.00,WSW,237,10.0,24.0,-999,0.00,,,0.16,,2013-02-10 22:42:00,
2013-02-10 16:53:00,48.0,-99.9,-100.00,WSW,237,10.0,24.0,-999,0.00,,,0.16,,2013-02-10 22:53:00,
2013-02-10 17:00:00,45.0,-99.9,-100.00,SW,234,12.0,31.0,-999,0.00,,,0.16,,2013-02-10 23:00:00,
2013-02-10 17:42:00,45.0,-99.9,-100.00,SW,234,12.0,31.0,-999,0.00,,,0.16,,2013-02-10 23:42:00,
2013-02-10 17:53:00,45.0,-99.9,-100.00,SW,234,12.0,31.0,-999,0.00,,,0.16,,2013-02-10 23:53:00,
2013-02-10 18:00:00,41.0,-99.9,-100.00,WSW,237,16.0,32.0,-999,0.00,,,0.16,,2013-02-11 00:00:00,
2013-02-10 18:42:00,41.0,-99.9,-100.00,WSW,237,16.0,32.0,-999,0.00,,,0.16,,2013-02-11 00:42:00,
2013-02-10 18:52:00,41.0,-99.9,-100.00,WSW,237,16.0,32.0,-999,0.00,,,0.16,,2013-02-11 00:52:00,
2013-02-10 20:00:00,36.0,-99.9,-100.00,WSW,238,12.0,25.0,-999,0.00,,,0.16,,2013-02-11 02:00:00,
2013-02-10 20:42:00,36.0,-99.9,-100.00,WSW,238,12.0,25.0,-999,0.00,,,0.16,,2013-02-11 02:42:00,
2013-02-10 20:52:00,36.0,-99.9,-100.00,WSW,238,12.0,25.0,-999,0.00,,,0.16,,2013-02-11 02:52:00,
2013-02-10 21:00:00,36.0,-99.9,-100.00,West,259,12.0,27.0,-999,0.00,,,0.16,,2013-02-11 03:00:00,
2013-02-10 21:42:00,36.0,-99.9,-100.00,West,259,12.0,27.0,-999,0.00,,,0.16,,2013-02-11 03:42:00,
2013-02-10 21:52:00,36.0,-99.9,-100.00,West,259,12.0,27.0,-999,0.00,,,0.16,,2013-02-11 03:52:00,
2013-02-10 22:00:00,35.0,-99.9,-100.00,West,267,15.0,36.0,-999,0.00,,,0.16,,2013-02-11 04:00:00,
2013-02-10 22:42:00,35.0,-99.9,-100.00,West,267,15.0,36.0,-999,0.00,,,0.16,,2013-02-11 04:42:00,
2013-02-10 22:52:00,35.0,-99.9,-100.00,West,267,15.0,36.0,-999,0.00,,,0.16,,2013-02-11 04:52:00,
2013-02-10 23:00:00,34.0,-99.9,-100.00,West,268,15.0,31.0,-999,0.00,,,0.16,,2013-02-11 05:00:00,
2013-02-10 23:42:00,34.0,-99.9,-100.00,West,268,15.0,31.0,-999,0.00,,,0.16,,2013-02-11 05:42:00,
2013-02-10 23:53:00,34.0,-99.9,-100.00,West,268,15.0,31.0,-999,0.00,,,0.16,,2013-02-11 05:53:00,